Time;durP1;ratioP1;P1;durP2;ratioP2;P2;SDS_P1;SDS_P2;PMS_P1;PMS_P2;Temp;Humidity;BMP_temperature;BMP_pressure;BME280_temperature;BME280_humidity;BME280_pressure;Samples;Min_cycle;Max_cycle;Signal;HPM_P1;HPM_P2
2022/04/25 00:02:07;;;;;;;6.40;5.10;;;;;;;;;;6140364;28;21088;-71
2022/04/25 00:05:28;;;;;;;7.07;5.13;;;;;;;;;;6167134;28;20229;-70
2022/04/25 00:08:49;;;;;;;8.50;6.70;;;;;;;;;;6132396;28;20657;-70
2022/04/25 00:12:10;;;;;;;6.23;5.40;;;;;;;;;;6166169;28;20270;-70
2022/04/25 00:15:30;;;;;;;5.13;4.63;;;;;;;;;;6140538;28;20611;-70
2022/04/25 00:18:51;;;;;;;8.97;5.30;;;;;;;;;;6139767;28;20234;-71
2022/04/25 00:22:13;;;;;;;9.10;5.63;;;;;;;;;;6167660;28;20234;-70
2022/04/25 00:25:34;;;;;;;7.57;5.10;;;;;;;;;;6161291;28;20234;-70
2022/04/25 00:28:54;;;;;;;7.03;5.60;;;;;;;;;;6132766;28;20325;-71
2022/04/25 00:32:15;;;;;;;6.07;5.47;;;;;;;;;;6163971;28;20268;-70
2022/04/25 00:35:35;;;;;;;7.93;5.50;;;;;;;;;;6140390;28;20226;-71
2022/04/25 00:38:57;;;;;;;6.27;5.63;;;;;;;;;;6152158;28;20242;-70
2022/04/25 00:42:18;;;;;;;6.20;5.60;;;;;;;;;;6148341;28;20245;-71
2022/04/25 00:45:38;;;;;;;5.77;5.20;;;;;;;;;;6144056;28;22085;-70
2022/04/25 00:48:59;;;;;;;6.20;4.57;;;;;;;;;;6172703;28;20457;-70
2022/04/25 00:52:20;;;;;;;9.20;5.20;;;;;;;;;;6147563;28;20257;-71
2022/04/25 00:55:42;;;;;;;6.83;4.97;;;;;;;;;;6169696;28;20238;-71
2022/04/25 00:59:03;;;;;;;8.37;4.57;;;;;;;;;;6171802;28;20249;-71
2022/04/25 01:02:25;;;;;;;5.97;4.07;;;;;;;;;;6145476;28;20229;-70
2022/04/25 01:05:45;;;;;;;6.23;3.80;;;;;;;;;;6168794;28;20241;-70
2022/04/25 01:09:05;;;;;;;7.17;5.00;;;;;;;;;;6140928;28;20321;-71
2022/04/25 01:12:28;;;;;;;6.53;4.80;;;;;;;;;;6143324;28;20257;-71
2022/04/25 01:15:49;;;;;;;7.03;4.87;;;;;;;;;;6166268;28;20230;-70
2022/04/25 01:19:09;;;;;;;8.40;4.20;;;;;;;;;;6142371;28;20504;-69
2022/04/25 01:22:32;;;;;;;8.83;5.17;;;;;;;;;;6167812;28;20263;-70
2022/04/25 01:29:31;;;;;;;4.87;3.43;;;;;;;;;;6137722;28;20238;-70
2022/04/25 01:32:52;;;;;;;4.20;3.50;;;;;;;;;;6163871;28;20243;-71
2022/04/25 01:36:13;;;;;;;6.47;4.13;;;;;;;;;;6141391;28;21039;-71
2022/04/25 01:39:34;;;;;;;4.77;3.40;;;;;;;;;;6139688;28;20230;-71
2022/04/25 01:42:56;;;;;;;6.83;4.10;;;;;;;;;;6164943;28;20242;-71
2022/04/25 01:46:17;;;;;;;5.43;4.07;;;;;;;;;;6142792;28;20230;-71
2022/04/25 01:49:38;;;;;;;4.63;4.10;;;;;;;;;;6164468;28;20631;-71
2022/04/25 01:52:58;;;;;;;5.23;3.57;;;;;;;;;;6139832;28;20233;-71
2022/04/25 01:56:20;;;;;;;6.63;4.33;;;;;;;;;;6170819;28;20491;-70
2022/04/25 01:59:43;;;;;;;5.13;3.47;;;;;;;;;;6155145;28;20237;-70
2022/04/25 02:03:04;;;;;;;5.07;3.50;;;;;;;;;;6163390;28;20549;-70
2022/04/25 02:06:24;;;;;;;6.57;4.40;;;;;;;;;;6147627;28;20233;-71
2022/04/25 02:09:45;;;;;;;3.90;3.43;;;;;;;;;;6160845;28;20760;-71
2022/04/25 02:13:06;;;;;;;4.47;3.30;;;;;;;;;;6161282;28;20267;-70
2022/04/25 02:16:28;;;;;;;3.63;3.30;;;;;;;;;;6148678;28;22320;-70
2022/04/25 02:19:48;;;;;;;7.13;3.90;;;;;;;;;;6162451;28;20225;-70
2022/04/25 02:23:11;;;;;;;4.93;3.23;;;;;;;;;;6163330;28;20329;-71
2022/04/25 02:26:32;;;;;;;6.80;3.53;;;;;;;;;;6152379;28;20233;-70
2022/04/25 02:29:57;;;;;;;6.00;3.87;;;;;;;;;;6160643;28;20237;-70
2022/04/25 02:33:19;;;;;;;6.87;3.93;;;;;;;;;;6158996;28;20230;-71
2022/04/25 02:36:39;;;;;;;4.87;3.67;;;;;;;;;;6160433;28;20528;-70
2022/04/25 02:40:00;;;;;;;4.90;4.00;;;;;;;;;;6162925;28;20257;-70
2022/04/25 02:43:21;;;;;;;4.43;3.47;;;;;;;;;;6156909;28;20264;-70
2022/04/25 02:46:42;;;;;;;4.23;3.80;;;;;;;;;;6158318;28;20226;-70
2022/04/25 02:50:04;;;;;;;3.57;3.27;;;;;;;;;;6161743;28;20226;-70
2022/04/25 02:53:25;;;;;;;5.97;3.13;;;;;;;;;;6161594;28;20280;-70
2022/04/25 02:56:45;;;;;;;4.73;3.53;;;;;;;;;;6157112;28;20238;-70
2022/04/25 03:00:06;;;;;;;5.03;3.20;;;;;;;;;;6163871;28;20261;-71
2022/04/25 03:03:27;;;;;;;7.30;4.23;;;;;;;;;;6164473;28;20249;-70
2022/04/25 03:06:49;;;;;;;4.47;3.73;;;;;;;;;;6169628;28;20231;-71
2022/04/25 03:10:10;;;;;;;4.60;3.73;;;;;;;;;;6166867;28;20528;-71
2022/04/25 03:13:30;;;;;;;7.87;7.03;;;;;;;;;;6152983;28;20246;-71
2022/04/25 03:16:51;;;;;;;6.63;5.43;;;;;;;;;;6161320;28;20263;-72
2022/04/25 03:20:14;;;;;;;7.67;4.43;;;;;;;;;;6165126;28;20233;-70
2022/04/25 03:23:37;;;;;;;8.40;4.30;;;;;;;;;;6160639;28;20257;-71
2022/04/25 03:26:57;;;;;;;6.40;4.20;;;;;;;;;;6165573;28;20234;-70
2022/04/25 03:30:18;;;;;;;5.17;3.63;;;;;;;;;;6168871;28;20234;-70
2022/04/25 03:33:39;;;;;;;7.50;3.77;;;;;;;;;;6165124;28;20326;-70
2022/04/25 03:36:59;;;;;;;5.60;3.80;;;;;;;;;;6166041;28;20237;-70
2022/04/25 03:40:21;;;;;;;6.50;4.03;;;;;;;;;;6167418;28;20234;-70
2022/04/25 03:43:42;;;;;;;4.73;4.33;;;;;;;;;;6167377;28;20241;-69
2022/04/25 03:47:03;;;;;;;5.73;4.33;;;;;;;;;;6166235;28;20234;-70
2022/04/25 03:50:24;;;;;;;10.13;5.23;;;;;;;;;;6166266;28;20230;-70
2022/04/25 03:53:44;;;;;;;8.20;6.30;;;;;;;;;;6164351;28;20324;-71
2022/04/25 03:57:12;;;;;;;5.73;4.87;;;;;;;;;;6170457;28;20607;-69
2022/04/25 04:00:32;;;;;;;4.93;4.37;;;;;;;;;;6175579;28;20226;-70
2022/04/25 04:03:53;;;;;;;6.60;3.83;;;;;;;;;;6169235;28;20787;-70
2022/04/25 04:07:14;;;;;;;5.23;4.37;;;;;;;;;;6171097;28;20324;-71
2022/04/25 04:10:35;;;;;;;5.77;4.07;;;;;;;;;;6175498;28;20229;-72
2022/04/25 04:13:57;;;;;;;4.27;3.20;;;;;;;;;;6165002;28;20246;-70
2022/04/25 04:17:18;;;;;;;6.83;4.30;;;;;;;;;;6162641;28;20222;-69
2022/04/25 04:20:39;;;;;;;6.50;4.93;;;;;;;;;;6163428;28;20516;-70
2022/04/25 04:24:01;;;;;;;10.07;5.03;;;;;;;;;;6162980;28;20233;-69
2022/04/25 04:27:21;;;;;;;6.80;4.37;;;;;;;;;;6171240;28;20250;-71
2022/04/25 04:30:46;;;;;;;5.33;3.73;;;;;;;;;;6169492;28;20233;-70
2022/04/25 04:34:06;;;;;;;5.77;3.73;;;;;;;;;;6171903;28;20234;-71
2022/04/25 04:37:29;;;;;;;6.40;3.27;;;;;;;;;;6172060;28;20226;-69
2022/04/25 04:40:49;;;;;;;6.17;4.43;;;;;;;;;;6169535;28;20229;-71
2022/04/25 04:44:10;;;;;;;6.33;4.37;;;;;;;;;;6171731;28;20711;-70
2022/04/25 04:47:34;;;;;;;6.00;3.90;;;;;;;;;;6172743;28;20325;-71
2022/04/25 04:50:56;;;;;;;10.30;9.07;;;;;;;;;;6171885;28;22396;-71
2022/04/25 04:54:17;;;;;;;4.47;4.07;;;;;;;;;;6158557;28;20278;-70
2022/04/25 04:57:38;;;;;;;5.63;4.10;;;;;;;;;;6171055;28;20257;-70
2022/04/25 05:00:59;;;;;;;4.43;3.50;;;;;;;;;;6164990;28;20611;-70
2022/04/25 05:04:21;;;;;;;4.17;3.43;;;;;;;;;;6163673;28;20234;-70
2022/04/25 05:07:42;;;;;;;5.30;3.60;;;;;;;;;;6170461;28;20265;-69
2022/04/25 05:11:02;;;;;;;5.20;3.13;;;;;;;;;;6163642;28;20276;-69
2022/04/25 05:14:23;;;;;;;5.13;3.83;;;;;;;;;;6170134;28;20230;-69
2022/04/25 05:17:44;;;;;;;4.63;3.20;;;;;;;;;;6167272;28;20237;-70
2022/04/25 05:21:06;;;;;;;3.97;2.63;;;;;;;;;;6167360;28;20222;-68
2022/04/25 05:24:26;;;;;;;4.17;3.40;;;;;;;;;;6167075;28;20257;-70
2022/04/25 05:27:47;;;;;;;5.30;3.40;;;;;;;;;;6166932;28;20234;-70
2022/04/25 05:31:08;;;;;;;4.13;2.97;;;;;;;;;;6165640;28;20238;-69
2022/04/25 05:34:28;;;;;;;5.23;3.23;;;;;;;;;;6165856;28;20234;-69
2022/04/25 05:37:50;;;;;;;5.57;5.07;;;;;;;;;;6166212;28;20253;-68
2022/04/25 05:41:11;;;;;;;3.43;3.03;;;;;;;;;;6163478;28;20238;-68
2022/04/25 05:44:32;;;;;;;4.93;3.33;;;;;;;;;;6167156;28;20325;-67
2022/04/25 05:47:54;;;;;;;3.27;2.73;;;;;;;;;;6169338;28;20275;-67
2022/04/25 05:54:53;;;;;;;4.47;2.73;;;;;;;;;;6167625;28;20226;-68
2022/04/25 05:58:14;;;;;;;4.20;3.03;;;;;;;;;;6167018;28;20245;-68
2022/04/25 06:01:34;;;;;;;6.00;4.27;;;;;;;;;;6164832;28;20241;-69
2022/04/25 06:04:55;;;;;;;6.43;4.67;;;;;;;;;;6161625;28;20316;-71
2022/04/25 06:08:16;;;;;;;5.03;2.97;;;;;;;;;;6173033;28;20225;-69
2022/04/25 06:11:38;;;;;;;5.37;3.10;;;;;;;;;;6172716;28;20233;-69
2022/04/25 06:15:00;;;;;;;4.67;3.10;;;;;;;;;;6172670;28;20230;-69
2022/04/25 06:18:20;;;;;;;4.27;2.57;;;;;;;;;;6156159;28;20695;-69
2022/04/25 06:21:41;;;;;;;5.38;3.58;;;;;;;;;;6161479;28;23127;-68
2022/04/25 06:25:01;;;;;;;4.77;3.27;;;;;;;;;;6175769;28;20221;-69
2022/04/25 06:28:24;;;;;;;3.73;2.60;;;;;;;;;;6176599;28;20241;-68
2022/04/25 06:31:45;;;;;;;6.20;4.10;;;;;;;;;;6171898;28;20328;-69
2022/04/25 06:35:07;;;;;;;8.87;4.77;;;;;;;;;;6184875;28;20221;-70
2022/04/25 06:38:28;;;;;;;5.80;3.17;;;;;;;;;;6170106;28;20245;-70
2022/04/25 06:41:48;;;;;;;4.50;3.23;;;;;;;;;;6180298;28;20562;-74
2022/04/25 06:45:10;;;;;;;6.80;4.50;;;;;;;;;;6172573;28;20238;-69
2022/04/25 06:48:31;;;;;;;6.20;2.77;;;;;;;;;;6174273;28;20234;-69
2022/04/25 06:51:52;;;;;;;3.77;2.93;;;;;;;;;;6173358;28;20257;-69
2022/04/25 06:55:13;;;;;;;3.03;2.40;;;;;;;;;;6172836;28;20244;-70
2022/04/25 06:58:33;;;;;;;6.03;2.47;;;;;;;;;;6172467;28;20225;-71
2022/04/25 07:01:55;;;;;;;5.23;4.70;;;;;;;;;;6168632;28;20269;-70
2022/04/25 07:05:16;;;;;;;3.00;2.70;;;;;;;;;;6172891;28;20371;-71
2022/04/25 07:08:37;;;;;;;4.73;2.97;;;;;;;;;;6172557;28;20344;-75
2022/04/25 07:11:57;;;;;;;7.27;4.63;;;;;;;;;;6161857;28;20329;-70
2022/04/25 07:15:19;;;;;;;5.33;3.00;;;;;;;;;;6172998;28;20618;-70
2022/04/25 07:18:42;;;;;;;3.13;2.70;;;;;;;;;;6172772;28;20233;-71
2022/04/25 07:29:19;;;;;;;6.83;3.20;;;;;;;;;;6174870;28;20225;-73
2022/04/25 07:32:40;;;;;;;4.83;2.37;;;;;;;;;;6141634;28;20242;-70
2022/04/25 07:36:02;;;;;;;3.13;2.83;;;;;;;;;;6167695;28;20238;-71
2022/04/25 07:39:23;;;;;;;5.27;2.80;;;;;;;;;;6169833;28;20229;-70
2022/04/25 07:42:44;;;;;;;3.10;2.33;;;;;;;;;;6170635;28;20245;-69
2022/04/25 07:46:04;;;;;;;5.03;3.70;;;;;;;;;;6168934;28;20233;-70
2022/04/25 07:49:25;;;;;;;2.10;1.80;;;;;;;;;;6171921;28;22345;-68
2022/04/25 07:52:47;;;;;;;2.87;2.50;;;;;;;;;;6172726;28;20608;-69
2022/04/25 07:56:08;;;;;;;3.50;2.40;;;;;;;;;;6161958;28;20237;-69
2022/04/25 07:59:29;;;;;;;8.27;3.97;;;;;;;;;;6173217;28;20627;-67
2022/04/25 08:02:49;;;;;;;5.50;3.20;;;;;;;;;;6166160;28;20253;-70
2022/04/25 08:06:11;;;;;;;4.13;2.93;;;;;;;;;;6167243;28;21690;-70
2022/04/25 08:09:34;;;;;;;3.47;2.93;;;;;;;;;;6172453;28;20234;-70
2022/04/25 08:20:10;;;;;;;4.63;2.77;;;;;;;;;;6173559;28;20233;-70
2022/04/25 08:23:31;;;;;;;2.93;2.60;;;;;;;;;;6168745;28;20238;-73
2022/04/25 08:26:53;;;;;;;4.67;3.10;;;;;;;;;;6154838;28;20516;-72
2022/04/25 08:30:14;;;;;;;4.20;3.23;;;;;;;;;;6170572;28;20619;-72
2022/04/25 08:33:35;;;;;;;4.40;2.93;;;;;;;;;;6175312;28;22415;-72
2022/04/25 08:36:56;;;;;;;5.87;3.87;;;;;;;;;;6179487;28;20253;-70
2022/04/25 08:40:16;;;;;;;3.23;2.90;;;;;;;;;;6177591;28;20230;-71
2022/04/25 08:43:39;;;;;;;3.97;3.30;;;;;;;;;;6173327;28;21101;-69
2022/04/25 08:46:59;;;;;;;3.17;2.80;;;;;;;;;;6167881;28;20230;-70
2022/04/25 08:50:20;;;;;;;3.77;2.70;;;;;;;;;;6172091;28;20222;-69
2022/04/25 08:53:42;;;;;;;4.93;4.20;;;;;;;;;;6166277;28;20233;-70
2022/04/25 08:57:03;;;;;;;6.37;3.93;;;;;;;;;;6164737;28;20226;-69
2022/04/25 09:00:25;;;;;;;4.40;3.27;;;;;;;;;;6173476;28;20237;-69
2022/04/25 09:03:46;;;;;;;5.33;2.77;;;;;;;;;;6169747;28;20234;-71
2022/04/25 09:07:06;;;;;;;4.47;3.13;;;;;;;;;;6174844;28;20495;-72
2022/04/25 09:10:28;;;;;;;3.83;3.20;;;;;;;;;;6169598;28;20817;-73
2022/04/25 09:13:48;;;;;;;4.40;4.00;;;;;;;;;;6176704;28;20552;-72
2022/04/25 09:17:10;;;;;;;6.07;2.90;;;;;;;;;;6176295;28;20242;-72
2022/04/25 09:20:31;;;;;;;5.27;3.00;;;;;;;;;;6174922;28;20492;-70
2022/04/25 09:23:52;;;;;;;3.53;3.23;;;;;;;;;;6168768;28;20234;-70
2022/04/25 09:27:16;;;;;;;6.20;3.00;;;;;;;;;;6173271;28;20642;-70
2022/04/25 09:30:37;;;;;;;3.43;3.13;;;;;;;;;;6170784;28;20253;-69
2022/04/25 09:34:13;;;;;;;3.37;3.07;;;;;;;;;;6170400;28;20226;-65
2022/04/25 09:37:45;;;;;;;6.93;6.23;;;;;;;;;;6168684;28;20570;-68
2022/04/25 09:41:07;;;;;;;7.37;5.17;;;;;;;;;;6165542;28;20264;-68
2022/04/25 09:44:51;;;;;;;5.37;3.30;;;;;;;;;;6168710;28;20628;-68
2022/04/25 09:48:14;;;;;;;3.13;2.80;;;;;;;;;;6169701;28;20770;-68
2022/04/25 09:51:37;;;;;;;3.23;3.00;;;;;;;;;;6165565;28;20226;-68
2022/04/25 09:55:10;;;;;;;3.07;2.73;;;;;;;;;;6159940;28;20238;-70
2022/04/25 09:58:30;;;;;;;4.77;2.93;;;;;;;;;;6168104;28;20222;-68
2022/04/25 10:02:04;;;;;;;3.30;2.60;;;;;;;;;;6170083;28;20226;-67
2022/04/25 10:05:35;;;;;;;2.67;2.47;;;;;;;;;;6164504;28;24010;-68
2022/04/25 10:08:58;;;;;;;3.00;2.70;;;;;;;;;;6165507;28;20240;-70
2022/04/25 10:12:18;;;;;;;2.43;2.23;;;;;;;;;;6175216;28;20234;-68
2022/04/25 10:15:39;;;;;;;2.83;2.63;;;;;;;;;;6176024;28;20252;-70
2022/04/25 10:19:00;;;;;;;3.67;3.37;;;;;;;;;;6176327;28;20238;-69
2022/04/25 10:22:21;;;;;;;3.17;2.60;;;;;;;;;;6172340;28;20324;-70
2022/04/25 10:25:48;;;;;;;2.87;2.07;;;;;;;;;;6177219;28;20249;-71
2022/04/25 10:29:10;;;;;;;2.27;2.10;;;;;;;;;;6171860;28;21250;-71
2022/04/25 10:32:31;;;;;;;2.83;1.60;;;;;;;;;;6180781;28;20229;-72
2022/04/25 10:35:52;;;;;;;2.20;2.00;;;;;;;;;;6178482;28;20226;-72
2022/04/25 10:39:13;;;;;;;3.60;2.27;;;;;;;;;;6173261;28;20246;-70
2022/04/25 10:46:49;;;;;;;3.63;2.43;;;;;;;;;;6174981;28;20234;-69
2022/04/25 10:50:10;;;;;;;2.47;2.00;;;;;;;;;;6176131;28;20246;-68
2022/04/25 10:53:46;;;;;;;3.47;2.67;;;;;;;;;;6174649;28;20229;-70
2022/04/25 10:57:16;;;;;;;3.07;2.87;;;;;;;;;;6167138;28;20233;-66
2022/04/25 11:01:00;;;;;;;4.57;2.77;;;;;;;;;;6153905;28;20233;-69
2022/04/25 11:04:22;;;;;;;3.70;2.17;;;;;;;;;;6164325;28;20869;-68
2022/04/25 11:07:44;;;;;;;4.07;2.50;;;;;;;;;;6179771;28;20687;-68
2022/04/25 11:11:24;;;;;;;3.00;2.30;;;;;;;;;;6173039;28;20234;-70
2022/04/25 11:14:58;;;;;;;2.80;2.50;;;;;;;;;;6174926;28;20233;-68
2022/04/25 11:18:22;;;;;;;3.27;2.60;;;;;;;;;;6171627;28;20237;-68
2022/04/25 11:21:46;;;;;;;2.77;2.57;;;;;;;;;;6174315;28;20234;-68
2022/04/25 11:25:25;;;;;;;2.27;2.07;;;;;;;;;;6173789;28;20234;-70
2022/04/25 11:29:01;;;;;;;5.70;5.10;;;;;;;;;;6169314;28;20599;-71
2022/04/25 11:32:26;;;;;;;3.30;2.97;;;;;;;;;;6175934;28;20907;-67
2022/04/25 11:35:46;;;;;;;3.50;3.20;;;;;;;;;;6173201;28;20241;-68
2022/04/25 11:42:45;;;;;;;2.63;2.42;;;;;;;;;;6172347;28;20615;-67
2022/04/25 11:46:06;;;;;;;2.25;2.05;;;;;;;;;;6171673;28;20512;-70
2022/04/25 11:49:28;;;;;;;2.92;2.72;;;;;;;;;;6183154;28;20226;-69
2022/04/25 11:52:49;;;;;;;5.45;4.53;;;;;;;;;;6182605;28;20242;-69
2022/04/25 11:56:18;;;;;;;2.97;2.67;;;;;;;;;;6182705;28;20237;-67
2022/04/25 11:59:38;;;;;;;3.90;2.90;;;;;;;;;;6179562;28;20233;-68
2022/04/25 12:02:59;;;;;;;2.85;2.65;;;;;;;;;;6164577;28;20367;-68
2022/04/25 12:06:19;;;;;;;3.65;2.67;;;;;;;;;;6178127;28;20623;-66
2022/04/25 12:17:01;;;;;;;2.72;2.53;;;;;;;;;;6166570;28;20225;-68
2022/04/25 12:20:29;;;;;;;4.18;2.33;;;;;;;;;;6181745;28;20230;-69
2022/04/25 12:23:50;;;;;;;2.72;2.00;;;;;;;;;;6169474;28;20664;-69
2022/04/25 12:27:12;;;;;;;2.22;2.03;;;;;;;;;;6177347;28;20233;-69
2022/04/25 12:30:45;;;;;;;2.75;2.08;;;;;;;;;;6166671;28;20222;-68
2022/04/25 12:34:06;;;;;;;2.58;2.38;;;;;;;;;;6174237;28;20812;-68
2022/04/25 12:37:27;;;;;;;4.05;2.30;;;;;;;;;;6177058;28;20226;-70
2022/04/25 12:40:56;;;;;;;7.28;6.75;;;;;;;;;;6175978;28;20238;-69
2022/04/25 12:44:17;;;;;;;3.15;2.70;;;;;;;;;;6184645;28;20701;-69
2022/04/25 12:47:43;;;;;;;2.60;2.40;;;;;;;;;;6169876;28;20241;-70
2022/04/25 12:51:03;;;;;;;3.17;2.80;;;;;;;;;;6179838;28;20639;-70
2022/04/25 12:54:30;;;;;;;2.00;1.90;;;;;;;;;;6185251;28;20554;-70
2022/04/25 12:57:52;;;;;;;2.38;2.17;;;;;;;;;;6176109;28;20619;-70
2022/04/25 13:01:12;;;;;;;2.50;2.30;;;;;;;;;;6168347;28;20253;-68
2022/04/25 13:04:48;;;;;;;2.80;2.58;;;;;;;;;;6178335;28;20650;-69
2022/04/25 13:08:08;;;;;;;2.03;1.88;;;;;;;;;;6175425;28;20561;-68
2022/04/25 13:11:30;;;;;;;3.35;2.00;;;;;;;;;;6168266;28;20261;-68
2022/04/25 13:14:50;;;;;;;2.63;2.22;;;;;;;;;;6174553;28;20599;-66
2022/04/25 13:18:11;;;;;;;6.05;2.70;;;;;;;;;;6168754;28;20234;-70
2022/04/25 13:21:38;;;;;;;3.78;2.90;;;;;;;;;;6169110;28;21717;-67
2022/04/25 13:24:58;;;;;;;2.35;2.15;;;;;;;;;;6170177;28;20516;-68
2022/04/25 13:28:19;;;;;;;4.10;3.80;;;;;;;;;;6175825;28;20226;-67
2022/04/25 13:31:40;;;;;;;3.28;2.55;;;;;;;;;;6170980;28;20241;-65
2022/04/25 13:35:00;;;;;;;4.38;4.03;;;;;;;;;;6176604;28;20591;-67
2022/04/25 13:38:22;;;;;;;4.28;2.72;;;;;;;;;;6176005;28;20636;-69
2022/04/25 13:41:43;;;;;;;2.72;2.22;;;;;;;;;;6173542;28;20241;-67
2022/04/25 13:45:05;;;;;;;2.80;2.60;;;;;;;;;;6177176;28;20226;-70
2022/04/25 13:48:26;;;;;;;4.45;4.13;;;;;;;;;;6175842;28;20230;-68
2022/04/25 13:51:47;;;;;;;1.88;1.77;;;;;;;;;;6175295;28;20241;-71
2022/04/25 13:55:11;;;;;;;2.00;1.83;;;;;;;;;;6176289;28;20319;-72
2022/04/25 13:58:32;;;;;;;2.20;2.00;;;;;;;;;;6170970;28;20237;-73
2022/04/25 14:01:52;;;;;;;2.53;2.28;;;;;;;;;;6168226;28;20742;-73
2022/04/25 14:05:13;;;;;;;1.67;1.50;;;;;;;;;;6173814;28;20241;-73
2022/04/25 14:08:34;;;;;;;2.80;2.10;;;;;;;;;;6173269;28;20261;-73
2022/04/25 14:11:56;;;;;;;2.38;2.15;;;;;;;;;;6179329;28;20253;-74
2022/04/25 14:15:17;;;;;;;1.80;1.70;;;;;;;;;;6173581;28;20242;-71
2022/04/25 14:18:37;;;;;;;2.60;1.98;;;;;;;;;;6182388;28;20320;-74
2022/04/25 14:21:58;;;;;;;1.73;1.63;;;;;;;;;;6175827;28;21382;-72
2022/04/25 14:25:19;;;;;;;3.65;2.67;;;;;;;;;;6177868;28;20245;-71
2022/04/25 14:28:42;;;;;;;2.30;2.08;;;;;;;;;;6183426;28;20317;-71
2022/04/25 14:32:02;;;;;;;2.60;1.88;;;;;;;;;;6170105;28;20619;-71
2022/04/25 14:35:23;;;;;;;4.22;2.08;;;;;;;;;;6177377;28;20230;-76
2022/04/25 14:38:43;;;;;;;1.92;1.83;;;;;;;;;;6179213;28;20234;-73
2022/04/25 14:42:04;;;;;;;2.00;1.90;;;;;;;;;;6170975;28;20875;-73
2022/04/25 14:45:27;;;;;;;1.77;1.50;;;;;;;;;;6181675;28;20253;-73
2022/04/25 14:48:48;;;;;;;1.67;1.55;;;;;;;;;;6180673;28;20328;-74
2022/04/25 14:55:49;;;;;;;2.28;2.03;;;;;;;;;;6155434;28;20222;-74
2022/04/25 14:59:09;;;;;;;2.47;1.88;;;;;;;;;;6176578;28;20454;-71
2022/04/25 15:02:31;;;;;;;1.58;1.45;;;;;;;;;;6173728;28;20237;-73
2022/04/25 15:05:51;;;;;;;2.83;1.88;;;;;;;;;;6165651;28;20241;-72
2022/04/25 15:09:12;;;;;;;3.65;2.08;;;;;;;;;;6163270;28;20238;-72
2022/04/25 15:12:33;;;;;;;1.77;1.67;;;;;;;;;;6157800;28;20249;-72
2022/04/25 15:15:54;;;;;;;1.70;1.55;;;;;;;;;;6160054;28;20325;-73
2022/04/25 15:19:16;;;;;;;2.13;1.80;;;;;;;;;;6163001;28;20238;-71
2022/04/25 15:22:36;;;;;;;2.92;1.60;;;;;;;;;;6161454;28;20594;-73
2022/04/25 15:25:57;;;;;;;24.77;22.88;;;;;;;;;;6158860;28;20257;-74
2022/04/25 15:29:18;;;;;;;5.10;4.70;;;;;;;;;;6161572;28;20332;-73
2022/04/25 15:32:38;;;;;;;3.65;1.77;;;;;;;;;;6160697;28;20273;-73
2022/04/25 15:36:00;;;;;;;4.95;4.55;;;;;;;;;;6166822;28;20230;-73
2022/04/25 15:39:22;;;;;;;11.07;9.60;;;;;;;;;;6177526;28;20249;-70
2022/04/25 15:42:43;;;;;;;6.05;5.47;;;;;;;;;;6168877;28;20269;-68
2022/04/25 15:46:04;;;;;;;13.65;12.38;;;;;;;;;;6173061;28;20821;-69
2022/04/25 15:49:24;;;;;;;3.47;3.17;;;;;;;;;;6179338;28;20238;-69
2022/04/25 15:52:46;;;;;;;9.65;8.93;;;;;;;;;;6181659;28;20234;-69
2022/04/25 15:59:44;;;;;;;14.80;13.15;;;;;;;;;;6178820;28;20230;-68
2022/04/25 16:03:05;;;;;;;4.10;3.38;;;;;;;;;;6173797;28;20234;-69
2022/04/25 16:06:25;;;;;;;10.70;6.43;;;;;;;;;;6152600;28;20241;-69
2022/04/25 16:09:47;;;;;;;3.08;2.75;;;;;;;;;;6169676;28;20246;-69
2022/04/25 16:13:08;;;;;;;5.28;3.78;;;;;;;;;;6173674;28;20615;-69
2022/04/25 16:16:31;;;;;;;4.47;4.07;;;;;;;;;;6173965;28;20618;-69
2022/04/25 16:19:52;;;;;;;2.47;2.28;;;;;;;;;;6173865;28;20329;-68
2022/04/25 16:23:13;;;;;;;2.40;2.22;;;;;;;;;;6178639;28;20359;-68
2022/04/25 16:26:35;;;;;;;3.53;2.83;;;;;;;;;;6175202;28;20241;-68
2022/04/25 16:29:55;;;;;;;2.80;1.77;;;;;;;;;;6176227;28;20230;-68
2022/04/25 16:33:16;;;;;;;17.95;16.48;;;;;;;;;;6170154;28;20230;-69
2022/04/25 16:36:36;;;;;;;8.10;7.32;;;;;;;;;;6172271;28;20218;-69
2022/04/25 16:39:57;;;;;;;4.78;3.95;;;;;;;;;;6174702;28;20230;-67
2022/04/25 16:43:20;;;;;;;3.85;3.55;;;;;;;;;;6169194;28;20230;-67
2022/04/25 16:46:42;;;;;;;5.40;2.55;;;;;;;;;;6174891;28;20234;-73
2022/04/25 16:50:04;;;;;;;4.10;2.65;;;;;;;;;;6172839;28;20226;-74
2022/04/25 16:53:27;;;;;;;8.40;6.68;;;;;;;;;;6175883;28;20230;-70
2022/04/25 16:56:48;;;;;;;14.18;12.88;;;;;;;;;;6174853;28;20238;-71
2022/04/25 17:00:17;;;;;;;5.13;4.63;;;;;;;;;;6165919;28;20233;-77
2022/04/25 17:03:38;;;;;;;3.97;3.30;;;;;;;;;;6168741;28;20356;-77
2022/04/25 17:07:01;;;;;;;2.85;2.65;;;;;;;;;;6171234;28;20245;-72
2022/04/25 17:10:22;;;;;;;2.33;2.13;;;;;;;;;;6174171;28;20246;-73
2022/04/25 17:13:45;;;;;;;2.42;1.77;;;;;;;;;;6168258;28;20233;-71
2022/04/25 17:17:13;;;;;;;2.63;2.10;;;;;;;;;;6176871;28;20234;-70
2022/04/25 17:20:34;;;;;;;4.00;2.92;;;;;;;;;;6181815;28;20769;-73
2022/04/25 17:23:55;;;;;;;8.25;7.57;;;;;;;;;;6181943;28;20226;-77
2022/04/25 17:27:16;;;;;;;5.88;4.72;;;;;;;;;;6162044;28;20371;-73
2022/04/25 17:30:38;;;;;;;10.07;8.77;;;;;;;;;;6176464;28;20257;-70
